sensor_id;sensor_type;location;lat;lon;timestamp;P1;durP1;ratioP1;P2;durP2;ratioP2
20653;SDS011;21083;50.898;4.902;2023-08-17T00:02:27;7.15;;;3.33;;
20653;SDS011;21083;50.898;4.902;2023-08-17T00:04:54;5.75;;;2.40;;
20653;SDS011;21083;50.898;4.902;2023-08-17T00:07:21;7.05;;;2.78;;
20653;SDS011;21083;50.898;4.902;2023-08-17T00:09:48;7.80;;;2.65;;
20653;SDS011;21083;50.898;4.902;2023-08-17T00:12:15;8.82;;;2.88;;
20653;SDS011;21083;50.898;4.902;2023-08-17T00:14:43;10.52;;;3.10;;
20653;SDS011;21083;50.898;4.902;2023-08-17T00:17:10;11.65;;;3.05;;
20653;SDS011;21083;50.898;4.902;2023-08-17T00:19:37;6.32;;;2.30;;
20653;SDS011;21083;50.898;4.902;2023-08-17T00:22:04;9.35;;;2.85;;
20653;SDS011;21083;50.898;4.902;2023-08-17T00:24:31;9.45;;;2.97;;
20653;SDS011;21083;50.898;4.902;2023-08-17T00:26:58;8.88;;;3.10;;
20653;SDS011;21083;50.898;4.902;2023-08-17T00:29:25;7.20;;;2.75;;
20653;SDS011;21083;50.898;4.902;2023-08-17T00:31:53;9.48;;;2.90;;
20653;SDS011;21083;50.898;4.902;2023-08-17T00:34:20;10.02;;;2.63;;
20653;SDS011;21083;50.898;4.902;2023-08-17T00:36:47;6.15;;;2.50;;
20653;SDS011;21083;50.898;4.902;2023-08-17T00:39:14;8.13;;;3.20;;
20653;SDS011;21083;50.898;4.902;2023-08-17T00:41:41;6.32;;;2.65;;
20653;SDS011;21083;50.898;4.902;2023-08-17T00:44:08;9.38;;;2.90;;
20653;SDS011;21083;50.898;4.902;2023-08-17T00:46:35;8.13;;;2.72;;
20653;SDS011;21083;50.898;4.902;2023-08-17T00:49:04;6.57;;;2.92;;
20653;SDS011;21083;50.898;4.902;2023-08-17T00:51:32;6.47;;;2.35;;
20653;SDS011;21083;50.898;4.902;2023-08-17T00:54:00;6.88;;;2.53;;
20653;SDS011;21083;50.898;4.902;2023-08-17T00:56:28;9.98;;;2.60;;
20653;SDS011;21083;50.898;4.902;2023-08-17T00:58:55;7.30;;;2.63;;
20653;SDS011;21083;50.898;4.902;2023-08-17T01:01:23;5.57;;;2.45;;
20653;SDS011;21083;50.898;4.902;2023-08-17T01:03:50;5.15;;;2.38;;
20653;SDS011;21083;50.898;4.902;2023-08-17T01:06:19;6.00;;;2.53;;
20653;SDS011;21083;50.898;4.902;2023-08-17T01:08:46;8.13;;;2.45;;
20653;SDS011;21083;50.898;4.902;2023-08-17T01:11:15;6.00;;;2.75;;
20653;SDS011;21083;50.898;4.902;2023-08-17T01:13:49;7.95;;;3.08;;
20653;SDS011;21083;50.898;4.902;2023-08-17T01:16:24;7.45;;;2.33;;
20653;SDS011;21083;50.898;4.902;2023-08-17T01:18:55;9.52;;;2.95;;
20653;SDS011;21083;50.898;4.902;2023-08-17T01:21:28;5.20;;;2.47;;
20653;SDS011;21083;50.898;4.902;2023-08-17T01:24:04;14.63;;;3.17;;
20653;SDS011;21083;50.898;4.902;2023-08-17T01:26:32;8.95;;;2.80;;
20653;SDS011;21083;50.898;4.902;2023-08-17T01:28:58;10.48;;;2.67;;
20653;SDS011;21083;50.898;4.902;2023-08-17T01:31:27;6.97;;;2.72;;
20653;SDS011;21083;50.898;4.902;2023-08-17T01:34:00;6.85;;;2.45;;
20653;SDS011;21083;50.898;4.902;2023-08-17T01:36:31;8.23;;;2.63;;
20653;SDS011;21083;50.898;4.902;2023-08-17T01:39:03;7.85;;;2.67;;
20653;SDS011;21083;50.898;4.902;2023-08-17T01:41:31;7.22;;;2.75;;
20653;SDS011;21083;50.898;4.902;2023-08-17T01:43:59;7.22;;;2.90;;
20653;SDS011;21083;50.898;4.902;2023-08-17T01:46:29;7.40;;;2.50;;
20653;SDS011;21083;50.898;4.902;2023-08-17T01:48:57;7.03;;;2.47;;
20653;SDS011;21083;50.898;4.902;2023-08-17T01:51:24;7.78;;;2.80;;
20653;SDS011;21083;50.898;4.902;2023-08-17T01:53:51;7.35;;;2.50;;
20653;SDS011;21083;50.898;4.902;2023-08-17T01:56:19;6.03;;;2.58;;
20653;SDS011;21083;50.898;4.902;2023-08-17T01:58:46;8.43;;;3.28;;
20653;SDS011;21083;50.898;4.902;2023-08-17T02:01:13;5.22;;;2.58;;
20653;SDS011;21083;50.898;4.902;2023-08-17T02:03:40;7.20;;;2.75;;
20653;SDS011;21083;50.898;4.902;2023-08-17T02:06:07;6.28;;;2.45;;
20653;SDS011;21083;50.898;4.902;2023-08-17T02:08:35;8.90;;;3.50;;
20653;SDS011;21083;50.898;4.902;2023-08-17T02:11:03;7.30;;;2.40;;
20653;SDS011;21083;50.898;4.902;2023-08-17T02:13:31;8.13;;;3.30;;
20653;SDS011;21083;50.898;4.902;2023-08-17T02:15:58;8.70;;;2.53;;
20653;SDS011;21083;50.898;4.902;2023-08-17T02:18:25;7.55;;;3.00;;
20653;SDS011;21083;50.898;4.902;2023-08-17T02:20:56;7.43;;;2.72;;
20653;SDS011;21083;50.898;4.902;2023-08-17T02:23:23;7.60;;;2.35;;
20653;SDS011;21083;50.898;4.902;2023-08-17T02:25:50;8.07;;;2.80;;
20653;SDS011;21083;50.898;4.902;2023-08-17T02:28:17;5.63;;;2.60;;
20653;SDS011;21083;50.898;4.902;2023-08-17T02:30:45;6.03;;;2.88;;
20653;SDS011;21083;50.898;4.902;2023-08-17T02:33:13;6.35;;;2.72;;
20653;SDS011;21083;50.898;4.902;2023-08-17T02:35:40;7.05;;;3.10;;
20653;SDS011;21083;50.898;4.902;2023-08-17T02:38:07;7.60;;;2.50;;
20653;SDS011;21083;50.898;4.902;2023-08-17T02:40:34;7.65;;;2.90;;
20653;SDS011;21083;50.898;4.902;2023-08-17T02:43:00;7.03;;;2.70;;
20653;SDS011;21083;50.898;4.902;2023-08-17T02:45:27;5.53;;;2.50;;
20653;SDS011;21083;50.898;4.902;2023-08-17T02:47:56;7.53;;;2.50;;
20653;SDS011;21083;50.898;4.902;2023-08-17T02:50:23;10.15;;;2.90;;
20653;SDS011;21083;50.898;4.902;2023-08-17T02:52:50;9.85;;;2.45;;
20653;SDS011;21083;50.898;4.902;2023-08-17T02:55:17;9.48;;;3.13;;
20653;SDS011;21083;50.898;4.902;2023-08-17T02:57:44;7.53;;;3.30;;
20653;SDS011;21083;50.898;4.902;2023-08-17T03:00:11;6.45;;;2.78;;
20653;SDS011;21083;50.898;4.902;2023-08-17T03:02:39;8.32;;;2.58;;
20653;SDS011;21083;50.898;4.902;2023-08-17T03:05:07;5.70;;;2.50;;
20653;SDS011;21083;50.898;4.902;2023-08-17T03:07:34;8.32;;;2.30;;
20653;SDS011;21083;50.898;4.902;2023-08-17T03:10:01;9.13;;;3.03;;
20653;SDS011;21083;50.898;4.902;2023-08-17T03:12:29;10.50;;;2.83;;
20653;SDS011;21083;50.898;4.902;2023-08-17T03:14:56;7.80;;;2.92;;
20653;SDS011;21083;50.898;4.902;2023-08-17T03:17:23;9.13;;;2.88;;
20653;SDS011;21083;50.898;4.902;2023-08-17T03:19:49;6.72;;;2.95;;
20653;SDS011;21083;50.898;4.902;2023-08-17T03:22:18;7.60;;;2.70;;
20653;SDS011;21083;50.898;4.902;2023-08-17T03:24:45;6.38;;;2.65;;
20653;SDS011;21083;50.898;4.902;2023-08-17T03:27:12;8.27;;;2.78;;
20653;SDS011;21083;50.898;4.902;2023-08-17T03:29:39;7.40;;;2.80;;
20653;SDS011;21083;50.898;4.902;2023-08-17T03:32:06;9.85;;;3.05;;
20653;SDS011;21083;50.898;4.902;2023-08-17T03:34:33;10.38;;;3.00;;
20653;SDS011;21083;50.898;4.902;2023-08-17T03:37:00;8.63;;;3.08;;
20653;SDS011;21083;50.898;4.902;2023-08-17T03:39:29;9.70;;;3.30;;
20653;SDS011;21083;50.898;4.902;2023-08-17T03:41:56;8.02;;;3.03;;
20653;SDS011;21083;50.898;4.902;2023-08-17T03:44:23;10.13;;;3.20;;
20653;SDS011;21083;50.898;4.902;2023-08-17T03:46:50;7.38;;;2.35;;
20653;SDS011;21083;50.898;4.902;2023-08-17T03:49:16;7.82;;;3.05;;
20653;SDS011;21083;50.898;4.902;2023-08-17T03:51:43;5.97;;;2.83;;
20653;SDS011;21083;50.898;4.902;2023-08-17T03:54:11;8.05;;;3.50;;
20653;SDS011;21083;50.898;4.902;2023-08-17T03:56:40;8.18;;;2.38;;
20653;SDS011;21083;50.898;4.902;2023-08-17T03:59:07;8.15;;;2.63;;
20653;SDS011;21083;50.898;4.902;2023-08-17T04:01:33;9.07;;;2.85;;
20653;SDS011;21083;50.898;4.902;2023-08-17T04:04:00;8.02;;;2.78;;
20653;SDS011;21083;50.898;4.902;2023-08-17T04:06:27;5.85;;;2.40;;
20653;SDS011;21083;50.898;4.902;2023-08-17T04:08:55;12.57;;;3.00;;
20653;SDS011;21083;50.898;4.902;2023-08-17T04:11:22;9.77;;;3.00;;
20653;SDS011;21083;50.898;4.902;2023-08-17T04:13:51;8.75;;;3.30;;
20653;SDS011;21083;50.898;4.902;2023-08-17T04:16:18;5.53;;;2.65;;
20653;SDS011;21083;50.898;4.902;2023-08-17T04:18:45;9.27;;;2.60;;
20653;SDS011;21083;50.898;4.902;2023-08-17T04:21:12;10.77;;;3.03;;
20653;SDS011;21083;50.898;4.902;2023-08-17T04:23:39;10.90;;;2.75;;
20653;SDS011;21083;50.898;4.902;2023-08-17T04:26:05;9.73;;;2.63;;
20653;SDS011;21083;50.898;4.902;2023-08-17T04:28:32;11.50;;;3.28;;
20653;SDS011;21083;50.898;4.902;2023-08-17T04:31:01;6.32;;;2.63;;
20653;SDS011;21083;50.898;4.902;2023-08-17T04:33:28;11.60;;;3.42;;
20653;SDS011;21083;50.898;4.902;2023-08-17T04:35:55;10.02;;;2.97;;
20653;SDS011;21083;50.898;4.902;2023-08-17T04:38:24;9.95;;;2.92;;
20653;SDS011;21083;50.898;4.902;2023-08-17T04:40:51;8.95;;;2.63;;
20653;SDS011;21083;50.898;4.902;2023-08-17T04:43:18;8.45;;;2.70;;
20653;SDS011;21083;50.898;4.902;2023-08-17T04:45:45;10.43;;;2.80;;
20653;SDS011;21083;50.898;4.902;2023-08-17T04:48:14;12.43;;;3.00;;
20653;SDS011;21083;50.898;4.902;2023-08-17T04:50:41;10.23;;;2.80;;
20653;SDS011;21083;50.898;4.902;2023-08-17T04:53:08;8.40;;;3.00;;
20653;SDS011;21083;50.898;4.902;2023-08-17T04:55:35;7.10;;;2.90;;
20653;SDS011;21083;50.898;4.902;2023-08-17T04:58:02;13.27;;;2.97;;
20653;SDS011;21083;50.898;4.902;2023-08-17T05:00:29;10.63;;;3.13;;
20653;SDS011;21083;50.898;4.902;2023-08-17T05:02:56;11.90;;;2.45;;
20653;SDS011;21083;50.898;4.902;2023-08-17T05:05:24;8.73;;;2.60;;
20653;SDS011;21083;50.898;4.902;2023-08-17T05:07:52;8.20;;;2.75;;
20653;SDS011;21083;50.898;4.902;2023-08-17T05:10:19;11.15;;;2.85;;
20653;SDS011;21083;50.898;4.902;2023-08-17T05:12:46;10.80;;;2.80;;
20653;SDS011;21083;50.898;4.902;2023-08-17T05:15:13;10.40;;;2.50;;
20653;SDS011;21083;50.898;4.902;2023-08-17T05:17:40;11.02;;;3.38;;
20653;SDS011;21083;50.898;4.902;2023-08-17T05:20:08;8.85;;;3.03;;
20653;SDS011;21083;50.898;4.902;2023-08-17T05:22:36;20.80;;;3.55;;
20653;SDS011;21083;50.898;4.902;2023-08-17T05:25:04;8.23;;;2.50;;
20653;SDS011;21083;50.898;4.902;2023-08-17T05:27:32;7.72;;;2.50;;
20653;SDS011;21083;50.898;4.902;2023-08-17T05:29:59;13.07;;;2.75;;
20653;SDS011;21083;50.898;4.902;2023-08-17T05:32:26;10.30;;;2.92;;
20653;SDS011;21083;50.898;4.902;2023-08-17T05:34:53;11.65;;;3.22;;
20653;SDS011;21083;50.898;4.902;2023-08-17T05:37:20;9.02;;;2.78;;
20653;SDS011;21083;50.898;4.902;2023-08-17T05:39:48;11.05;;;3.28;;
20653;SDS011;21083;50.898;4.902;2023-08-17T05:42:16;8.55;;;3.00;;
20653;SDS011;21083;50.898;4.902;2023-08-17T05:44:43;10.68;;;3.15;;
20653;SDS011;21083;50.898;4.902;2023-08-17T05:47:10;12.63;;;2.78;;
20653;SDS011;21083;50.898;4.902;2023-08-17T05:49:40;10.60;;;3.00;;
20653;SDS011;21083;50.898;4.902;2023-08-17T05:52:07;13.00;;;3.28;;
20653;SDS011;21083;50.898;4.902;2023-08-17T05:54:34;8.43;;;2.65;;
20653;SDS011;21083;50.898;4.902;2023-08-17T05:57:02;16.02;;;3.67;;
20653;SDS011;21083;50.898;4.902;2023-08-17T05:59:30;8.32;;;3.38;;
20653;SDS011;21083;50.898;4.902;2023-08-17T06:01:57;8.60;;;2.90;;
20653;SDS011;21083;50.898;4.902;2023-08-17T06:04:24;10.38;;;3.10;;
20653;SDS011;21083;50.898;4.902;2023-08-17T06:06:51;10.52;;;3.60;;
20653;SDS011;21083;50.898;4.902;2023-08-17T06:09:18;11.70;;;3.97;;
20653;SDS011;21083;50.898;4.902;2023-08-17T06:11:45;12.30;;;3.40;;
20653;SDS011;21083;50.898;4.902;2023-08-17T06:14:13;10.93;;;3.45;;
20653;SDS011;21083;50.898;4.902;2023-08-17T06:16:40;15.30;;;4.80;;
20653;SDS011;21083;50.898;4.902;2023-08-17T06:19:07;12.43;;;3.97;;
20653;SDS011;21083;50.898;4.902;2023-08-17T06:21:34;13.30;;;4.13;;
20653;SDS011;21083;50.898;4.902;2023-08-17T06:24:01;10.25;;;3.88;;
20653;SDS011;21083;50.898;4.902;2023-08-17T06:26:29;10.32;;;3.80;;
20653;SDS011;21083;50.898;4.902;2023-08-17T06:28:56;8.90;;;3.72;;
20653;SDS011;21083;50.898;4.902;2023-08-17T06:31:24;8.70;;;3.85;;
20653;SDS011;21083;50.898;4.902;2023-08-17T06:33:52;13.63;;;4.82;;
20653;SDS011;21083;50.898;4.902;2023-08-17T06:36:19;11.25;;;3.85;;
20653;SDS011;21083;50.898;4.902;2023-08-17T06:38:46;11.98;;;4.22;;
20653;SDS011;21083;50.898;4.902;2023-08-17T06:41:13;13.20;;;3.92;;
20653;SDS011;21083;50.898;4.902;2023-08-17T06:43:40;10.98;;;4.47;;
20653;SDS011;21083;50.898;4.902;2023-08-17T06:46:07;10.18;;;3.85;;
20653;SDS011;21083;50.898;4.902;2023-08-17T06:48:36;11.85;;;4.38;;
20653;SDS011;21083;50.898;4.902;2023-08-17T06:51:03;13.35;;;4.13;;
20653;SDS011;21083;50.898;4.902;2023-08-17T06:53:30;12.75;;;4.55;;
20653;SDS011;21083;50.898;4.902;2023-08-17T06:55:57;11.63;;;4.65;;
20653;SDS011;21083;50.898;4.902;2023-08-17T06:58:24;15.27;;;4.70;;
20653;SDS011;21083;50.898;4.902;2023-08-17T07:00:51;13.75;;;4.18;;
20653;SDS011;21083;50.898;4.902;2023-08-17T07:03:18;8.98;;;3.60;;
20653;SDS011;21083;50.898;4.902;2023-08-17T07:05:47;10.52;;;3.60;;
20653;SDS011;21083;50.898;4.902;2023-08-17T07:08:14;11.40;;;4.32;;
20653;SDS011;21083;50.898;4.902;2023-08-17T07:10:42;12.27;;;3.65;;
20653;SDS011;21083;50.898;4.902;2023-08-17T07:13:09;10.70;;;4.18;;
20653;SDS011;21083;50.898;4.902;2023-08-17T07:15:35;9.48;;;3.72;;
20653;SDS011;21083;50.898;4.902;2023-08-17T07:18:03;11.48;;;4.28;;
20653;SDS011;21083;50.898;4.902;2023-08-17T07:20:31;10.73;;;3.72;;
20653;SDS011;21083;50.898;4.902;2023-08-17T07:22:59;15.23;;;4.03;;
20653;SDS011;21083;50.898;4.902;2023-08-17T07:25:26;18.05;;;4.55;;
20653;SDS011;21083;50.898;4.902;2023-08-17T07:27:53;16.77;;;4.43;;
20653;SDS011;21083;50.898;4.902;2023-08-17T07:30:20;16.33;;;4.20;;
20653;SDS011;21083;50.898;4.902;2023-08-17T07:32:47;16.88;;;4.85;;
20653;SDS011;21083;50.898;4.902;2023-08-17T07:35:15;13.25;;;4.15;;
20653;SDS011;21083;50.898;4.902;2023-08-17T07:37:42;15.43;;;4.55;;
20653;SDS011;21083;50.898;4.902;2023-08-17T07:40:10;12.18;;;4.05;;
20653;SDS011;21083;50.898;4.902;2023-08-17T07:42:38;12.52;;;4.43;;
20653;SDS011;21083;50.898;4.902;2023-08-17T07:45:05;12.00;;;4.15;;
20653;SDS011;21083;50.898;4.902;2023-08-17T07:47:33;11.57;;;4.47;;
20653;SDS011;21083;50.898;4.902;2023-08-17T07:50:01;13.50;;;4.22;;
20653;SDS011;21083;50.898;4.902;2023-08-17T07:52:29;14.30;;;4.45;;
20653;SDS011;21083;50.898;4.902;2023-08-17T07:54:56;10.77;;;4.05;;
20653;SDS011;21083;50.898;4.902;2023-08-17T07:57:24;17.27;;;5.60;;
20653;SDS011;21083;50.898;4.902;2023-08-17T07:59:51;13.25;;;5.20;;
20653;SDS011;21083;50.898;4.902;2023-08-17T08:02:19;15.40;;;5.65;;
20653;SDS011;21083;50.898;4.902;2023-08-17T08:04:46;14.32;;;5.18;;
20653;SDS011;21083;50.898;4.902;2023-08-17T08:07:13;15.73;;;5.38;;
20653;SDS011;21083;50.898;4.902;2023-08-17T08:09:40;17.58;;;5.85;;
20653;SDS011;21083;50.898;4.902;2023-08-17T08:12:06;16.77;;;7.00;;
20653;SDS011;21083;50.898;4.902;2023-08-17T08:14:35;18.40;;;7.13;;
20653;SDS011;21083;50.898;4.902;2023-08-17T08:17:02;19.10;;;6.55;;
20653;SDS011;21083;50.898;4.902;2023-08-17T08:19:29;15.75;;;7.40;;
20653;SDS011;21083;50.898;4.902;2023-08-17T08:21:57;15.63;;;6.75;;
20653;SDS011;21083;50.898;4.902;2023-08-17T08:24:25;16.60;;;7.30;;
20653;SDS011;21083;50.898;4.902;2023-08-17T08:26:56;15.77;;;7.25;;
20653;SDS011;21083;50.898;4.902;2023-08-17T08:29:23;15.02;;;7.50;;
20653;SDS011;21083;50.898;4.902;2023-08-17T08:31:51;20.67;;;7.75;;
20653;SDS011;21083;50.898;4.902;2023-08-17T08:34:18;19.55;;;8.02;;
20653;SDS011;21083;50.898;4.902;2023-08-17T08:36:46;24.17;;;10.10;;
20653;SDS011;21083;50.898;4.902;2023-08-17T08:39:13;18.20;;;8.90;;
20653;SDS011;21083;50.898;4.902;2023-08-17T08:41:40;19.02;;;9.43;;
20653;SDS011;21083;50.898;4.902;2023-08-17T08:44:07;18.33;;;8.90;;
20653;SDS011;21083;50.898;4.902;2023-08-17T08:46:34;19.33;;;9.35;;
20653;SDS011;21083;50.898;4.902;2023-08-17T08:49:06;20.10;;;8.82;;
20653;SDS011;21083;50.898;4.902;2023-08-17T08:51:37;21.67;;;10.10;;
20653;SDS011;21083;50.898;4.902;2023-08-17T08:54:08;20.92;;;8.82;;
20653;SDS011;21083;50.898;4.902;2023-08-17T08:56:40;22.08;;;9.05;;
20653;SDS011;21083;50.898;4.902;2023-08-17T08:59:11;18.90;;;8.00;;
20653;SDS011;21083;50.898;4.902;2023-08-17T09:01:38;17.77;;;9.07;;
20653;SDS011;21083;50.898;4.902;2023-08-17T09:04:07;20.63;;;10.35;;
20653;SDS011;21083;50.898;4.902;2023-08-17T09:06:34;18.92;;;8.90;;
20653;SDS011;21083;50.898;4.902;2023-08-17T09:09:02;21.23;;;8.57;;
20653;SDS011;21083;50.898;4.902;2023-08-17T09:11:30;19.35;;;9.27;;
20653;SDS011;21083;50.898;4.902;2023-08-17T09:13:57;18.05;;;8.30;;
20653;SDS011;21083;50.898;4.902;2023-08-17T09:16:24;19.38;;;8.25;;
20653;SDS011;21083;50.898;4.902;2023-08-17T09:18:52;18.60;;;8.90;;
20653;SDS011;21083;50.898;4.902;2023-08-17T09:21:21;19.98;;;8.73;;
20653;SDS011;21083;50.898;4.902;2023-08-17T09:23:52;15.98;;;8.27;;
20653;SDS011;21083;50.898;4.902;2023-08-17T09:26:19;16.73;;;8.02;;
20653;SDS011;21083;50.898;4.902;2023-08-17T09:28:48;18.55;;;8.52;;
20653;SDS011;21083;50.898;4.902;2023-08-17T09:31:15;17.90;;;8.65;;
20653;SDS011;21083;50.898;4.902;2023-08-17T09:33:48;18.02;;;8.98;;
20653;SDS011;21083;50.898;4.902;2023-08-17T09:36:19;17.65;;;9.07;;
20653;SDS011;21083;50.898;4.902;2023-08-17T09:38:48;21.17;;;9.40;;
20653;SDS011;21083;50.898;4.902;2023-08-17T09:41:17;18.20;;;8.77;;
20653;SDS011;21083;50.898;4.902;2023-08-17T09:43:44;18.95;;;8.25;;
20653;SDS011;21083;50.898;4.902;2023-08-17T09:46:12;18.38;;;9.55;;
20653;SDS011;21083;50.898;4.902;2023-08-17T09:48:39;19.92;;;9.48;;
20653;SDS011;21083;50.898;4.902;2023-08-17T09:51:09;20.38;;;8.88;;
20653;SDS011;21083;50.898;4.902;2023-08-17T09:53:37;18.65;;;9.40;;
20653;SDS011;21083;50.898;4.902;2023-08-17T09:56:04;22.95;;;9.15;;
20653;SDS011;21083;50.898;4.902;2023-08-17T09:58:35;18.83;;;9.20;;
20653;SDS011;21083;50.898;4.902;2023-08-17T10:01:03;19.38;;;10.10;;
20653;SDS011;21083;50.898;4.902;2023-08-17T10:03:32;25.25;;;12.60;;
20653;SDS011;21083;50.898;4.902;2023-08-17T10:06:02;18.45;;;9.98;;
20653;SDS011;21083;50.898;4.902;2023-08-17T10:08:31;18.95;;;8.90;;
20653;SDS011;21083;50.898;4.902;2023-08-17T10:11:04;20.73;;;9.82;;
20653;SDS011;21083;50.898;4.902;2023-08-17T10:13:35;15.07;;;8.55;;
20653;SDS011;21083;50.898;4.902;2023-08-17T10:16:09;15.93;;;8.70;;
20653;SDS011;21083;50.898;4.902;2023-08-17T10:18:42;17.73;;;9.85;;
20653;SDS011;21083;50.898;4.902;2023-08-17T10:21:13;16.52;;;9.35;;
20653;SDS011;21083;50.898;4.902;2023-08-17T10:23:47;15.48;;;9.00;;
20653;SDS011;21083;50.898;4.902;2023-08-17T10:26:16;17.88;;;9.15;;
20653;SDS011;21083;50.898;4.902;2023-08-17T10:28:44;17.67;;;9.07;;
20653;SDS011;21083;50.898;4.902;2023-08-17T10:31:12;15.80;;;8.60;;
20653;SDS011;21083;50.898;4.902;2023-08-17T10:33:39;18.65;;;10.07;;
20653;SDS011;21083;50.898;4.902;2023-08-17T10:36:09;17.65;;;8.80;;
20653;SDS011;21083;50.898;4.902;2023-08-17T10:38:38;17.95;;;9.20;;
20653;SDS011;21083;50.898;4.902;2023-08-17T10:41:09;16.67;;;9.25;;
20653;SDS011;21083;50.898;4.902;2023-08-17T10:46:32;22.33;;;9.90;;
20653;SDS011;21083;50.898;4.902;2023-08-17T10:49:03;18.42;;;9.88;;
20653;SDS011;21083;50.898;4.902;2023-08-17T10:51:32;19.55;;;10.23;;
20653;SDS011;21083;50.898;4.902;2023-08-17T10:54:00;18.15;;;9.55;;
20653;SDS011;21083;50.898;4.902;2023-08-17T10:56:29;18.15;;;8.32;;
20653;SDS011;21083;50.898;4.902;2023-08-17T10:58:59;16.35;;;9.18;;
20653;SDS011;21083;50.898;4.902;2023-08-17T11:01:40;15.73;;;9.77;;
20653;SDS011;21083;50.898;4.902;2023-08-17T11:04:15;17.17;;;9.02;;
20653;SDS011;21083;50.898;4.902;2023-08-17T11:06:45;19.52;;;10.77;;
20653;SDS011;21083;50.898;4.902;2023-08-17T11:09:12;20.58;;;10.32;;
20653;SDS011;21083;50.898;4.902;2023-08-17T11:11:43;14.07;;;8.73;;
20653;SDS011;21083;50.898;4.902;2023-08-17T11:14:18;17.63;;;9.60;;
20653;SDS011;21083;50.898;4.902;2023-08-17T11:16:47;16.38;;;9.57;;
20653;SDS011;21083;50.898;4.902;2023-08-17T11:19:17;17.50;;;9.63;;
20653;SDS011;21083;50.898;4.902;2023-08-17T11:21:44;16.10;;;9.20;;
20653;SDS011;21083;50.898;4.902;2023-08-17T11:24:12;16.92;;;9.95;;
20653;SDS011;21083;50.898;4.902;2023-08-17T11:26:39;16.38;;;9.70;;
20653;SDS011;21083;50.898;4.902;2023-08-17T11:29:07;17.63;;;10.68;;
20653;SDS011;21083;50.898;4.902;2023-08-17T11:31:35;16.38;;;10.07;;
20653;SDS011;21083;50.898;4.902;2023-08-17T11:34:03;18.88;;;9.57;;
20653;SDS011;21083;50.898;4.902;2023-08-17T11:36:30;18.60;;;9.90;;
20653;SDS011;21083;50.898;4.902;2023-08-17T11:38:59;20.40;;;10.05;;
20653;SDS011;21083;50.898;4.902;2023-08-17T11:41:25;19.30;;;9.68;;
20653;SDS011;21083;50.898;4.902;2023-08-17T11:43:52;18.60;;;9.30;;
20653;SDS011;21083;50.898;4.902;2023-08-17T11:46:20;18.58;;;9.77;;
20653;SDS011;21083;50.898;4.902;2023-08-17T11:48:48;19.58;;;10.35;;
20653;SDS011;21083;50.898;4.902;2023-08-17T11:51:21;17.98;;;9.55;;
20653;SDS011;21083;50.898;4.902;2023-08-17T11:53:58;24.08;;;10.32;;
20653;SDS011;21083;50.898;4.902;2023-08-17T11:56:25;20.88;;;10.02;;
20653;SDS011;21083;50.898;4.902;2023-08-17T11:58:52;21.40;;;10.57;;
20653;SDS011;21083;50.898;4.902;2023-08-17T12:01:19;18.20;;;10.30;;
20653;SDS011;21083;50.898;4.902;2023-08-17T12:03:47;22.67;;;11.20;;
20653;SDS011;21083;50.898;4.902;2023-08-17T12:06:15;17.70;;;10.82;;
20653;SDS011;21083;50.898;4.902;2023-08-17T12:08:44;23.33;;;11.93;;
20653;SDS011;21083;50.898;4.902;2023-08-17T12:11:12;18.85;;;10.35;;
20653;SDS011;21083;50.898;4.902;2023-08-17T12:13:39;23.05;;;12.10;;
20653;SDS011;21083;50.898;4.902;2023-08-17T12:16:06;20.58;;;11.55;;
20653;SDS011;21083;50.898;4.902;2023-08-17T12:18:43;20.70;;;11.25;;
20653;SDS011;21083;50.898;4.902;2023-08-17T12:21:10;20.10;;;10.10;;
20653;SDS011;21083;50.898;4.902;2023-08-17T12:23:37;19.13;;;9.93;;
20653;SDS011;21083;50.898;4.902;2023-08-17T12:26:06;20.27;;;10.38;;
20653;SDS011;21083;50.898;4.902;2023-08-17T12:28:33;20.55;;;9.35;;
20653;SDS011;21083;50.898;4.902;2023-08-17T12:31:00;16.63;;;8.77;;
20653;SDS011;21083;50.898;4.902;2023-08-17T12:33:28;16.73;;;9.88;;
20653;SDS011;21083;50.898;4.902;2023-08-17T12:35:56;21.83;;;11.18;;
20653;SDS011;21083;50.898;4.902;2023-08-17T12:38:23;18.60;;;9.90;;
20653;SDS011;21083;50.898;4.902;2023-08-17T12:40:51;23.92;;;11.45;;
20653;SDS011;21083;50.898;4.902;2023-08-17T12:43:19;18.98;;;11.02;;
20653;SDS011;21083;50.898;4.902;2023-08-17T12:45:47;19.13;;;10.63;;
20653;SDS011;21083;50.898;4.902;2023-08-17T12:48:14;19.33;;;10.85;;
20653;SDS011;21083;50.898;4.902;2023-08-17T12:50:41;17.42;;;10.95;;
20653;SDS011;21083;50.898;4.902;2023-08-17T12:53:08;18.65;;;10.95;;
20653;SDS011;21083;50.898;4.902;2023-08-17T12:55:35;18.00;;;11.13;;
20653;SDS011;21083;50.898;4.902;2023-08-17T12:58:03;19.10;;;12.05;;
20653;SDS011;21083;50.898;4.902;2023-08-17T13:00:31;19.90;;;10.90;;
20653;SDS011;21083;50.898;4.902;2023-08-17T13:02:58;19.05;;;11.32;;
20653;SDS011;21083;50.898;4.902;2023-08-17T13:05:25;19.65;;;10.32;;
20653;SDS011;21083;50.898;4.902;2023-08-17T13:07:52;22.50;;;12.05;;
20653;SDS011;21083;50.898;4.902;2023-08-17T13:10:19;22.52;;;11.55;;
20653;SDS011;21083;50.898;4.902;2023-08-17T13:12:46;19.05;;;10.48;;
20653;SDS011;21083;50.898;4.902;2023-08-17T13:15:13;29.10;;;13.80;;
20653;SDS011;21083;50.898;4.902;2023-08-17T13:17:42;24.73;;;12.95;;
20653;SDS011;21083;50.898;4.902;2023-08-17T13:20:09;22.77;;;12.90;;
20653;SDS011;21083;50.898;4.902;2023-08-17T13:22:37;20.77;;;10.93;;
20653;SDS011;21083;50.898;4.902;2023-08-17T13:25:04;27.13;;;12.30;;
20653;SDS011;21083;50.898;4.902;2023-08-17T13:27:32;24.17;;;13.13;;
20653;SDS011;21083;50.898;4.902;2023-08-17T13:29:58;23.08;;;11.98;;
20653;SDS011;21083;50.898;4.902;2023-08-17T13:32:26;25.05;;;13.45;;
20653;SDS011;21083;50.898;4.902;2023-08-17T13:34:55;25.77;;;13.35;;
20653;SDS011;21083;50.898;4.902;2023-08-17T13:37:22;25.90;;;12.05;;
20653;SDS011;21083;50.898;4.902;2023-08-17T13:39:49;25.83;;;14.00;;
20653;SDS011;21083;50.898;4.902;2023-08-17T13:42:16;23.92;;;12.43;;
20653;SDS011;21083;50.898;4.902;2023-08-17T13:44:43;21.85;;;12.10;;
20653;SDS011;21083;50.898;4.902;2023-08-17T13:47:11;23.52;;;11.82;;
20653;SDS011;21083;50.898;4.902;2023-08-17T13:49:38;25.42;;;12.98;;
20653;SDS011;21083;50.898;4.902;2023-08-17T13:52:07;27.77;;;14.10;;
20653;SDS011;21083;50.898;4.902;2023-08-17T13:54:34;23.30;;;12.35;;
20653;SDS011;21083;50.898;4.902;2023-08-17T13:57:01;25.77;;;12.85;;
20653;SDS011;21083;50.898;4.902;2023-08-17T13:59:28;26.95;;;13.48;;
20653;SDS011;21083;50.898;4.902;2023-08-17T14:01:56;24.35;;;13.48;;
20653;SDS011;21083;50.898;4.902;2023-08-17T14:04:23;24.13;;;13.07;;
20653;SDS011;21083;50.898;4.902;2023-08-17T14:06:50;27.58;;;13.43;;
20653;SDS011;21083;50.898;4.902;2023-08-17T14:09:18;20.98;;;13.38;;
20653;SDS011;21083;50.898;4.902;2023-08-17T14:11:45;22.67;;;12.93;;
20653;SDS011;21083;50.898;4.902;2023-08-17T14:14:12;25.00;;;13.88;;
20653;SDS011;21083;50.898;4.902;2023-08-17T14:16:39;21.65;;;12.05;;
20653;SDS011;21083;50.898;4.902;2023-08-17T14:19:08;23.48;;;12.25;;
20653;SDS011;21083;50.898;4.902;2023-08-17T14:21:35;26.33;;;13.38;;
20653;SDS011;21083;50.898;4.902;2023-08-17T14:24:02;25.65;;;13.95;;
20653;SDS011;21083;50.898;4.902;2023-08-17T14:26:33;22.38;;;12.30;;
20653;SDS011;21083;50.898;4.902;2023-08-17T14:29:00;26.77;;;13.45;;
20653;SDS011;21083;50.898;4.902;2023-08-17T14:31:27;20.88;;;12.07;;
20653;SDS011;21083;50.898;4.902;2023-08-17T14:33:54;26.33;;;13.25;;
20653;SDS011;21083;50.898;4.902;2023-08-17T14:36:21;33.25;;;15.93;;
20653;SDS011;21083;50.898;4.902;2023-08-17T14:38:48;28.60;;;14.05;;
20653;SDS011;21083;50.898;4.902;2023-08-17T14:41:15;25.80;;;14.07;;
20653;SDS011;21083;50.898;4.902;2023-08-17T14:43:43;26.08;;;13.52;;